X  Blizu METAR Podaci o vazduhoplovstvu        LEGR Granada
Temperatura
19°C Temperatura
12°C Tačka Rose
64% Vlaga



Vetar
13 KM/H
8 MPH
4 M/S
7 KTS



190°
J
Trenutna situacija

Partly Cloudy with Light Rain Delimično oblačno , Slaba Kiša
Vazdušni pritisak 1015 (hPa) - 29.98 (inHg)
Vidljivost 30 (Milje) - 48 (km)
Aerodrom
Aerodromski kod. LEGR

Lokacija: Granada
Udaljenost: 56 (km)

Metar:
METAR LEGR 211400Z 19007KT 160V220 9999 -RA FEW050CB SCT060TCU 19/12 Q1017

Vreme: 21-09-2021 16:00 CEST